PWSweather.com
Personal Weather Stations
Station Observations
MENWDWX1
Menstrie, ScotlandGB

MenstrieScotlandGB

Lat: 56.148322, Lon: -3.85483

Elevation: 62

Station Type: Davis Vantage Pro 2

Latest ConditionsUpdated 2:15:01 AM GMT Tuesday, Mar 28, 2017
Currently Today's Max Today's Min Today's Average
Temperature 42.2°F5.7°C 43.5°F6.4°C 42.2°F5.7°C 42.7°F5.9°C
Dew Point 39.5°F4.2°C 40.5°F4.7°C 39.5°F4.2°C 39.9°F4.4°C
Winds 4.6 mph E7.4 kmh E 6.9 mph E11.1 kmh E - 2.9 mph 4.7 kmh
Wind Gusts 9.2 mph14.8 kmh 10.4 mph16.7 kmh - -
Humidity 90% 91% 88% 90%
Pressure 30.09 in1019.0 mb 30.13 in1020.3 mb 30.09 in1019.0 mb -
Hour Temp Dew Point Humidity Winds Wind Gusts Pressure Precip Precip Rate Daily Precip Total
02:15 AM 42.2°F5.7°C 39.5°F4.2°C 90% 4.6 mph E7.4 kmh E 9.2 mph14.8 kmh 30.09 in1019.0 mb - 0.00 in0.0 mm 0.00 in0.0 mm
02:10 AM 42.2°F5.7°C 39.5°F4.2°C 90% 3.5 mph E5.6 kmh E 4.6 mph7.4 kmh 30.09 in1019.0 mb - 0.00 in0.0 mm 0.00 in0.0 mm
02:05 AM 42.3°F5.7°C 39.9°F4.4°C 91% 3.5 mph E5.6 kmh E 3.5 mph5.6 kmh 30.09 in1019.0 mb - 0.00 in0.0 mm 0.00 in0.0 mm
02:00 AM 42.3°F5.7°C 39.6°F4.2°C 90% 2.3 mph E3.7 kmh E 3.5 mph5.6 kmh 30.09 in1019.0 mb - 0.00 in0.0 mm 0.00 in0.0 mm
01:55 AM 42.4°F5.8°C 39.7°F4.3°C 90% 2.3 mph ESE3.7 kmh ESE 8.1 mph13.0 kmh 30.09 in1019.0 mb - 0.00 in0.0 mm 0.00 in0.0 mm
01:50 AM 42.4°F5.8°C 39.7°F4.3°C 90% 3.5 mph ESE5.6 kmh ESE 3.5 mph5.6 kmh 30.09 in1019.0 mb - 0.00 in0.0 mm 0.00 in0.0 mm
01:45 AM 42.4°F5.8°C 40.0°F4.4°C 91% 2.3 mph ENE3.7 kmh ENE 3.5 mph5.6 kmh 30.10 in1019.3 mb - 0.00 in0.0 mm 0.00 in0.0 mm
01:40 AM 42.4°F5.8°C 39.6°F4.2°C 90% 2.3 mph ESE3.7 kmh ESE 3.5 mph5.6 kmh 30.10 in1019.3 mb - 0.00 in0.0 mm 0.00 in0.0 mm
01:35 AM 42.3°F5.7°C 39.9°F4.4°C 91% 2.3 mph E3.7 kmh E 3.5 mph5.6 kmh 30.10 in1019.3 mb - 0.00 in0.0 mm 0.00 in0.0 mm
01:30 AM 42.3°F5.7°C 39.9°F4.4°C 91% Calm Calm -- 30.10 in1019.3 mb - 0.00 in0.0 mm 0.00 in0.0 mm
01:25 AM 42.3°F5.7°C 39.9°F4.4°C 91% Calm Calm -- 30.11 in1019.6 mb - 0.00 in0.0 mm 0.00 in0.0 mm
01:20 AM 42.3°F5.7°C 39.9°F4.4°C 91% Calm Calm -- 30.11 in1019.6 mb - 0.00 in0.0 mm 0.00 in0.0 mm
01:15 AM 42.3°F5.7°C 39.9°F4.4°C 91% Calm Calm -- 30.11 in1019.6 mb - 0.00 in0.0 mm 0.00 in0.0 mm
01:10 AM 42.4°F5.8°C 39.7°F4.3°C 90% 2.3 mph E3.7 kmh E 3.5 mph5.6 kmh 30.11 in1019.6 mb - 0.00 in0.0 mm 0.00 in0.0 mm
01:05 AM 42.4°F5.8°C 39.7°F4.3°C 90% 2.3 mph NE3.7 kmh NE 3.5 mph5.6 kmh 30.12 in1020.0 mb - 0.00 in0.0 mm 0.00 in0.0 mm
01:00 AM 42.5°F5.8°C 39.8°F4.3°C 90% 2.3 mph E3.7 kmh E 3.5 mph5.6 kmh 30.12 in1020.0 mb - 0.00 in0.0 mm 0.00 in0.0 mm
12:55 AM 42.7°F5.9°C 40.0°F4.4°C 90% 3.5 mph E5.6 kmh E 4.6 mph7.4 kmh 30.12 in1020.0 mb - 0.00 in0.0 mm 0.00 in0.0 mm
12:50 AM 42.9°F6.1°C 40.2°F4.6°C 90% 1.2 mph E1.9 kmh E 3.5 mph5.6 kmh 30.12 in1020.0 mb - 0.00 in0.0 mm 0.00 in0.0 mm
12:45 AM 43.0°F6.1°C 40.0°F4.4°C 89% 4.6 mph E7.4 kmh E 6.9 mph11.1 kmh 30.12 in1020.0 mb - 0.00 in0.0 mm 0.00 in0.0 mm
12:40 AM 43.0°F6.1°C 40.0°F4.4°C 89% 3.5 mph E5.6 kmh E 4.6 mph7.4 kmh 30.12 in1020.0 mb - 0.00 in0.0 mm 0.00 in0.0 mm
12:35 AM 43.1°F6.2°C 40.1°F4.5°C 89% 4.6 mph E7.4 kmh E 6.9 mph11.1 kmh 30.12 in1020.0 mb - 0.00 in0.0 mm 0.00 in0.0 mm
12:30 AM 43.2°F6.2°C 40.2°F4.6°C 89% 6.9 mph ESE11.1 kmh ESE 10.4 mph16.7 kmh 30.13 in1020.3 mb - 0.00 in0.0 mm 0.00 in0.0 mm
12:25 AM 43.3°F6.3°C 40.3°F4.6°C 89% 1.2 mph ESE1.9 kmh ESE 3.5 mph5.6 kmh 30.13 in1020.3 mb - 0.00 in0.0 mm 0.00 in0.0 mm
12:20 AM 43.3°F6.3°C 40.0°F4.4°C 88% 3.5 mph E5.6 kmh E 3.5 mph5.6 kmh 30.13 in1020.3 mb - 0.00 in0.0 mm 0.00 in0.0 mm
12:15 AM 43.3°F6.3°C 40.0°F4.4°C 88% 4.6 mph E7.4 kmh E 6.9 mph11.1 kmh 30.13 in1020.3 mb - 0.00 in0.0 mm 0.00 in0.0 mm
12:10 AM 43.4°F6.3°C 40.4°F4.7°C 89% 3.5 mph E5.6 kmh E 6.9 mph11.1 kmh 30.13 in1020.3 mb - 0.00 in0.0 mm 0.00 in0.0 mm
12:05 AM 43.5°F6.4°C 40.5°F4.7°C 89% 6.9 mph E11.1 kmh E 8.1 mph13.0 kmh 30.13 in1020.3 mb - 0.00 in0.0 mm 0.00 in0.0 mm
12:00 AM 43.5°F6.4°C 40.2°F4.6°C 88% 4.6 mph SE7.4 kmh SE 5.8 mph9.3 kmh 30.13 in1020.3 mb - 0.00 in0.0 mm 0.00 in0.0 mm